createdAt,value
2022-08-09T00:00:34.565Z,4.82
2022-08-09T00:02:49.331Z,4.93
2022-08-09T00:05:03.507Z,5.10
2022-08-09T00:07:15.372Z,4.55
2022-08-09T00:09:21.035Z,4.28
2022-08-09T00:11:27.763Z,4.80
2022-08-09T00:13:46.892Z,4.28
2022-08-09T00:15:59.339Z,3.90
2022-08-09T00:18:10.914Z,4.15
2022-08-09T00:20:15.313Z,4.07
2022-08-09T00:22:18.325Z,3.85
2022-08-09T00:24:21.128Z,4.43
2022-08-09T00:26:30.022Z,3.83
2022-08-09T00:28:35.990Z,3.80
2022-08-09T00:30:39.557Z,4.32
2022-08-09T00:32:43.360Z,3.53
2022-08-09T00:34:52.218Z,3.80
2022-08-09T00:36:55.689Z,4.28
2022-08-09T00:38:59.728Z,4.18
2022-08-09T00:41:02.369Z,4.85
2022-08-09T00:44:16.376Z,4.00
2022-08-09T00:45:30.690Z,4.10
2022-08-09T00:47:39.847Z,4.15
2022-08-09T00:49:52.443Z,4.10
2022-08-09T00:51:57.618Z,4.13
2022-08-09T00:54:05.081Z,4.57
2022-08-09T00:56:09.851Z,4.18
2022-08-09T00:58:14.736Z,4.53
2022-08-09T01:00:25.054Z,3.78
2022-08-09T01:02:31.477Z,3.55
2022-08-09T01:04:44.312Z,3.65
2022-08-09T01:07:15.139Z,4.03
2022-08-09T01:09:54.308Z,4.03
2022-08-09T01:12:24.078Z,4.45
2022-08-09T01:14:41.166Z,4.43
2022-08-09T01:16:49.219Z,3.70
2022-08-09T01:19:02.651Z,5.30
2022-08-09T01:21:07.262Z,3.72
2022-08-09T01:24:03.258Z,3.58
2022-08-09T01:25:56.565Z,3.72
2022-08-09T01:28:01.702Z,4.00
2022-08-09T01:30:28.867Z,3.95
2022-08-09T01:32:37.391Z,4.03
2022-08-09T01:34:44.000Z,3.25
2022-08-09T01:36:49.332Z,3.88
2022-08-09T01:38:53.199Z,3.90
2022-08-09T01:41:13.479Z,3.75
2022-08-09T01:43:17.337Z,4.07
2022-08-09T01:45:22.747Z,3.10
2022-08-09T01:47:27.371Z,3.30
2022-08-09T01:49:39.217Z,3.83
2022-08-09T01:51:53.056Z,4.22
2022-08-09T01:53:58.762Z,3.85
2022-08-09T01:56:03.462Z,3.50
2022-08-09T01:58:09.199Z,3.63
2022-08-09T02:00:34.631Z,3.22
2022-08-09T02:02:42.111Z,3.90
2022-08-09T02:04:45.851Z,3.47
2022-08-09T02:07:18.186Z,3.30
2022-08-09T02:09:41.836Z,3.35
2022-08-09T02:11:45.943Z,3.53
2022-08-09T02:14:06.428Z,4.00
2022-08-09T02:16:12.762Z,3.72
2022-08-09T02:18:21.177Z,3.72
2022-08-09T02:20:34.060Z,4.13
2022-08-09T02:22:39.158Z,3.75
2022-08-09T02:24:46.363Z,3.47
2022-08-09T02:26:58.826Z,3.33
2022-08-09T02:29:10.899Z,3.97
2022-08-09T02:31:22.652Z,3.45
2022-08-09T02:33:37.715Z,4.90
2022-08-09T02:36:03.144Z,3.75
2022-08-09T02:38:07.155Z,3.63
2022-08-09T02:40:18.553Z,3.28
2022-08-09T02:42:37.298Z,3.58
2022-08-09T02:44:44.833Z,4.47
2022-08-09T02:46:52.397Z,4.50
2022-08-09T02:48:59.265Z,5.03
2022-08-09T02:51:03.451Z,4.50
2022-08-09T02:53:17.296Z,4.25
2022-08-09T02:55:39.434Z,4.65
2022-08-09T02:58:00.287Z,4.37
2022-08-09T03:00:25.282Z,4.78
2022-08-09T03:02:31.211Z,4.25
2022-08-09T03:04:36.658Z,4.38
2022-08-09T03:06:41.742Z,4.80
2022-08-09T03:08:49.690Z,5.97
2022-08-09T03:10:56.835Z,5.03
2022-08-09T03:13:04.713Z,4.40
2022-08-09T03:15:13.400Z,4.78
2022-08-09T03:17:26.767Z,5.43
2022-08-09T03:19:57.651Z,4.57
2022-08-09T03:21:57.315Z,4.90
2022-08-09T03:24:04.275Z,4.82
2022-08-09T03:26:08.751Z,4.90
2022-08-09T03:28:12.422Z,5.40
2022-08-09T03:30:29.847Z,4.70
2022-08-09T03:32:38.167Z,4.38
2022-08-09T03:34:41.551Z,4.70
2022-08-09T03:36:48.070Z,4.07
2022-08-09T03:39:02.369Z,5.07
2022-08-09T03:41:05.309Z,4.30
2022-08-09T03:43:08.384Z,4.32
2022-08-09T03:45:15.567Z,4.88
2022-08-09T03:47:18.397Z,4.32
2022-08-09T03:49:24.053Z,4.65
2022-08-09T03:51:55.509Z,5.07
2022-08-09T03:53:56.930Z,4.30
2022-08-09T03:56:02.986Z,3.88
2022-08-09T03:58:16.612Z,5.40
2022-08-09T04:00:23.798Z,4.70
2022-08-09T04:02:31.770Z,4.13
2022-08-09T04:04:38.813Z,4.50
2022-08-09T04:06:44.131Z,4.50
2022-08-09T04:08:53.512Z,4.35
2022-08-09T04:10:56.339Z,3.97
2022-08-09T04:13:11.573Z,4.50
2022-08-09T04:15:29.457Z,4.38
2022-08-09T04:17:42.398Z,5.00
2022-08-09T04:19:51.442Z,4.47
2022-08-09T04:21:59.228Z,4.57
2022-08-09T04:24:02.851Z,4.88
2022-08-09T04:26:05.664Z,5.00
2022-08-09T04:28:08.341Z,5.15
2022-08-09T04:30:14.005Z,4.72
2022-08-09T04:32:16.587Z,5.07
2022-08-09T04:34:30.743Z,5.05
2022-08-09T04:36:34.745Z,5.40
2022-08-09T04:38:37.387Z,4.55
2022-08-09T04:40:56.414Z,4.28
2022-08-09T04:42:59.842Z,5.30
2022-08-09T04:45:03.730Z,4.85
2022-08-09T04:47:07.612Z,4.68
2022-08-09T04:49:11.399Z,4.28
2022-08-09T04:51:17.470Z,5.15
2022-08-09T04:53:22.985Z,4.80
2022-08-09T04:55:25.576Z,4.85
2022-08-09T04:57:54.164Z,4.63
2022-08-09T04:59:52.656Z,6.00
2022-08-09T05:01:55.310Z,5.90
2022-08-09T05:03:58.759Z,5.63
2022-08-09T05:06:07.679Z,5.15
2022-08-09T05:08:14.001Z,5.10
2022-08-09T05:10:18.061Z,6.07
2022-08-09T05:12:22.546Z,5.80
2022-08-09T05:14:26.880Z,5.03
2022-08-09T05:16:31.602Z,5.40
2022-08-09T05:18:42.487Z,5.80
2022-08-09T05:20:58.303Z,5.80
2022-08-09T05:23:53.883Z,4.88
2022-08-09T05:25:25.800Z,4.93
2022-08-09T05:27:34.944Z,5.30
2022-08-09T05:29:48.518Z,5.50
2022-08-09T05:31:58.379Z,5.28
2022-08-09T05:34:01.578Z,4.93
2022-08-09T05:36:05.238Z,4.93
2022-08-09T05:38:09.891Z,5.15
2022-08-09T05:40:27.035Z,5.60
2022-08-09T05:42:29.761Z,5.00
2022-08-09T05:44:34.574Z,5.38
2022-08-09T05:46:37.786Z,5.32
2022-08-09T05:48:41.872Z,4.90
2022-08-09T05:50:51.009Z,4.70
2022-08-09T05:53:11.737Z,5.63
2022-08-09T05:55:31.340Z,5.43
2022-08-09T05:57:56.171Z,4.70
2022-08-09T05:59:58.106Z,4.30
2022-08-09T06:02:00.798Z,4.90
2022-08-09T06:04:05.919Z,4.72
2022-08-09T06:06:08.933Z,4.95
2022-08-09T06:08:12.518Z,4.35
2022-08-09T06:10:18.106Z,4.40
2022-08-09T06:12:22.199Z,4.47
2022-08-09T06:14:29.233Z,4.45
2022-08-09T06:16:31.804Z,4.68
2022-08-09T06:18:35.414Z,4.43
2022-08-09T06:20:39.422Z,4.50
2022-08-09T06:22:42.383Z,4.20
2022-08-09T06:24:48.995Z,4.22
2022-08-09T06:26:51.712Z,3.80
2022-08-09T06:28:59.880Z,3.88
2022-08-09T06:31:07.237Z,3.17
2022-08-09T06:33:30.538Z,4.00
2022-08-09T06:35:55.834Z,4.15
2022-08-09T06:38:05.863Z,4.15
2022-08-09T06:40:21.661Z,3.95
2022-08-09T06:42:28.585Z,3.72
2022-08-09T06:44:33.805Z,3.75
2022-08-09T06:46:40.365Z,2.85
2022-08-09T06:48:43.872Z,3.53
2022-08-09T06:50:47.988Z,3.67
2022-08-09T06:52:50.722Z,3.50
2022-08-09T06:54:54.331Z,3.20
2022-08-09T06:56:57.195Z,3.58
2022-08-09T07:00:51.245Z,3.95
2022-08-09T07:01:24.276Z,4.15
2022-08-09T07:03:39.534Z,3.67
2022-08-09T07:06:04.228Z,3.35
2022-08-09T07:08:08.077Z,3.10
2022-08-09T07:10:22.414Z,3.17
2022-08-09T07:12:38.041Z,2.55
2022-08-09T07:14:43.805Z,3.03
2022-08-09T07:16:48.092Z,2.72
2022-08-09T07:18:53.437Z,3.08
2022-08-09T07:20:56.536Z,3.60
2022-08-09T07:22:59.573Z,3.33
2022-08-09T07:25:05.068Z,3.00
2022-08-09T07:27:26.993Z,3.53
2022-08-09T07:29:37.685Z,3.28
2022-08-09T07:31:45.919Z,3.13
2022-08-09T07:33:52.730Z,3.53
2022-08-09T07:35:58.585Z,4.20
2022-08-09T07:38:01.217Z,3.47
2022-08-09T07:40:04.921Z,3.90
2022-08-09T07:42:07.891Z,3.33
2022-08-09T07:44:11.818Z,3.10
2022-08-09T07:46:19.072Z,3.10
2022-08-09T07:48:29.530Z,3.58
2022-08-09T07:50:36.553Z,2.80
2022-08-09T07:52:42.963Z,2.70
2022-08-09T07:54:45.892Z,1.90
2022-08-09T07:56:54.427Z,2.25
2022-08-09T07:58:57.227Z,2.40
2022-08-09T08:01:06.699Z,2.67
2022-08-09T08:03:14.099Z,2.92
2022-08-09T08:05:17.724Z,2.05
2022-08-09T08:08:44.321Z,2.25
2022-08-09T08:09:51.745Z,2.72
2022-08-09T08:12:11.532Z,2.45
2022-08-09T08:14:21.040Z,2.80
2022-08-09T08:16:29.732Z,2.17
2022-08-09T08:18:34.232Z,2.40
2022-08-09T08:20:39.636Z,2.50
2022-08-09T08:22:48.398Z,2.45
2022-08-09T08:24:56.267Z,2.28
2022-08-09T08:27:00.174Z,2.55
2022-08-09T08:29:02.769Z,2.75
2022-08-09T08:31:13.663Z,2.30
2022-08-09T08:33:24.024Z,2.20
2022-08-09T08:35:28.217Z,2.80
2022-08-09T08:38:02.202Z,2.60
2022-08-09T08:40:07.804Z,2.30
2022-08-09T08:42:11.839Z,2.20
2022-08-09T08:44:15.715Z,2.38
2022-08-09T08:46:41.550Z,2.63
2022-08-09T08:49:03.130Z,2.40
2022-08-09T08:51:08.830Z,2.75
2022-08-09T08:53:15.904Z,2.10
2022-08-09T08:55:24.886Z,2.55
2022-08-09T08:57:28.706Z,1.70
2022-08-09T08:59:46.672Z,1.98
2022-08-09T09:01:57.354Z,2.30
2022-08-09T09:04:04.253Z,2.15
2022-08-09T09:06:09.511Z,2.15
2022-08-09T09:08:30.142Z,1.92
2022-08-09T09:10:36.347Z,2.20
2022-08-09T09:12:40.601Z,3.42
2022-08-09T09:14:44.679Z,2.42
2022-08-09T09:16:47.458Z,2.08
2022-08-09T09:19:10.716Z,2.28
2022-08-09T09:21:18.082Z,2.35
2022-08-09T09:23:49.935Z,2.20
2022-08-09T09:26:11.971Z,2.10
2022-08-09T09:28:39.062Z,2.30
2022-08-09T09:30:57.402Z,2.50
2022-08-09T09:33:16.195Z,2.20
2022-08-09T09:35:20.793Z,2.20
2022-08-09T09:37:32.001Z,2.45
2022-08-09T09:39:50.238Z,2.28
2022-08-09T09:41:58.894Z,2.38
2022-08-09T09:44:11.783Z,2.22
2022-08-09T09:48:41.026Z,1.90
2022-08-09T09:50:50.774Z,2.15
2022-08-09T09:52:56.104Z,2.42
2022-08-09T09:55:16.534Z,1.83
2022-08-09T09:58:02.983Z,2.17
2022-08-09T09:59:55.175Z,2.00
2022-08-09T10:02:01.082Z,2.20
2022-08-09T10:04:30.303Z,1.83
2022-08-09T10:06:43.054Z,2.00
2022-08-09T10:08:54.989Z,1.85
2022-08-09T10:11:00.225Z,1.70
2022-08-09T10:13:24.727Z,1.73
2022-08-09T10:16:09.310Z,2.05
2022-08-09T10:18:13.343Z,1.63
2022-08-09T10:20:27.329Z,1.90
2022-08-09T10:22:39.122Z,2.20
2022-08-09T10:24:42.017Z,2.00
2022-08-09T10:26:48.820Z,1.65
2022-08-09T10:29:34.816Z,1.75
2022-08-09T10:34:08.336Z,2.00
2022-08-09T10:36:11.465Z,1.88
2022-08-09T10:38:55.270Z,2.03
2022-08-09T10:40:41.186Z,2.33
2022-08-09T10:42:47.535Z,1.65
2022-08-09T10:45:15.682Z,2.05
2022-08-09T10:48:26.601Z,2.80
2022-08-09T10:50:06.472Z,1.83
2022-08-09T10:52:35.708Z,4.97
2022-08-09T10:54:39.221Z,2.42
2022-08-09T10:56:43.020Z,2.35
2022-08-09T10:58:49.433Z,2.53
2022-08-09T11:01:10.780Z,2.00
2022-08-09T11:03:49.584Z,2.28
2022-08-09T11:06:18.807Z,2.42
2022-08-09T11:08:47.447Z,2.38
2022-08-09T11:10:54.729Z,2.00
2022-08-09T11:13:51.106Z,2.72
2022-08-09T11:15:38.622Z,2.83
2022-08-09T11:18:03.070Z,2.17
2022-08-09T11:20:20.307Z,2.78
2022-08-09T11:22:57.074Z,2.60
2022-08-09T11:25:08.972Z,2.33
2022-08-09T11:28:04.000Z,2.95
2022-08-09T11:30:31.889Z,3.50
2022-08-09T11:32:46.676Z,4.18
2022-08-09T11:34:52.459Z,3.05
2022-08-09T11:36:58.705Z,3.58
2022-08-09T11:39:03.014Z,3.17
2022-08-09T11:41:16.004Z,3.40
2022-08-09T11:43:40.987Z,3.38
2022-08-09T11:45:56.024Z,3.28
2022-08-09T11:48:11.149Z,3.83
2022-08-09T11:50:53.961Z,3.15
2022-08-09T11:53:58.020Z,3.45
2022-08-09T11:55:51.929Z,3.03
2022-08-09T11:58:02.056Z,2.78
2022-08-09T12:00:16.457Z,3.08
2022-08-09T12:02:37.686Z,3.20
2022-08-09T12:04:43.298Z,3.03
2022-08-09T12:06:55.528Z,3.53
2022-08-09T12:09:01.420Z,3.53
2022-08-09T12:11:04.613Z,4.25
2022-08-09T12:14:07.133Z,3.13
2022-08-09T12:16:27.211Z,3.67
2022-08-09T12:18:33.607Z,3.55
2022-08-09T12:20:43.857Z,3.30
2022-08-09T12:22:55.951Z,3.33
2022-08-09T12:25:16.864Z,3.03
2022-08-09T12:30:01.866Z,3.13
2022-08-09T12:32:25.200Z,3.17
2022-08-09T12:34:39.888Z,3.25
2022-08-09T12:36:58.852Z,3.17
2022-08-09T12:39:14.947Z,3.40
2022-08-09T12:41:39.490Z,2.83
2022-08-09T12:44:06.324Z,2.70
2022-08-09T12:46:06.810Z,2.95
2022-08-09T12:48:27.893Z,2.70
2022-08-09T12:50:36.355Z,2.90
2022-08-09T12:53:09.108Z,2.92
2022-08-09T12:56:14.416Z,2.33
2022-08-09T12:57:50.758Z,2.90
2022-08-09T13:00:25.101Z,2.03
2022-08-09T13:02:28.226Z,2.83
2022-08-09T13:04:38.265Z,2.90
2022-08-09T13:09:02.700Z,2.63
2022-08-09T13:11:13.390Z,2.47
2022-08-09T13:14:41.348Z,5.35
2022-08-09T13:16:17.509Z,3.05
2022-08-09T13:18:27.179Z,2.53
2022-08-09T13:20:37.224Z,2.45
2022-08-09T13:23:01.586Z,3.38
2022-08-09T13:25:14.099Z,10.63
2022-08-09T13:27:39.950Z,3.00
2022-08-09T13:30:04.203Z,2.70
2022-08-09T13:32:26.420Z,2.75
2022-08-09T13:34:36.153Z,2.30
2022-08-09T13:36:43.320Z,4.07
2022-08-09T13:38:55.063Z,2.85
2022-08-09T13:41:39.018Z,2.75
2022-08-09T13:43:35.622Z,3.38
2022-08-09T13:46:43.749Z,3.05
2022-08-09T13:48:04.417Z,3.13
2022-08-09T13:50:30.824Z,2.77
2022-08-09T13:52:34.785Z,2.72
2022-08-09T13:54:41.662Z,2.25
2022-08-09T13:56:47.004Z,2.17
2022-08-09T13:58:51.558Z,2.28
2022-08-09T14:00:54.795Z,2.70
2022-08-09T14:03:03.761Z,2.47
2022-08-09T14:05:59.082Z,2.05
2022-08-09T14:07:42.573Z,2.50
2022-08-09T14:09:45.226Z,2.17
2022-08-09T14:11:48.137Z,2.20
2022-08-09T14:14:23.377Z,2.60
2022-08-09T14:16:19.528Z,2.92
2022-08-09T14:18:32.102Z,2.40
2022-08-09T14:20:35.159Z,3.55
2022-08-09T14:22:37.941Z,2.50
2022-08-09T14:24:47.114Z,2.67
2022-08-09T14:26:56.477Z,2.85
2022-08-09T14:29:08.354Z,2.72
2022-08-09T14:31:49.487Z,2.65
2022-08-09T14:33:54.632Z,2.45
2022-08-09T14:35:57.511Z,2.60
2022-08-09T14:38:20.263Z,2.40
2022-08-09T14:40:39.179Z,2.53
2022-08-09T14:42:45.869Z,2.60
2022-08-09T14:44:59.853Z,2.25
2022-08-09T14:47:29.122Z,2.63
2022-08-09T14:49:26.780Z,2.58
2022-08-09T14:51:29.983Z,9.60
2022-08-09T14:53:32.954Z,2.50
2022-08-09T14:55:48.108Z,2.20
2022-08-09T14:57:52.956Z,2.25
2022-08-09T14:59:56.849Z,5.15
2022-08-09T15:01:59.462Z,3.50
2022-08-09T15:04:02.130Z,7.32
2022-08-09T15:06:05.381Z,2.60
2022-08-09T15:08:10.283Z,2.70
2022-08-09T15:10:16.127Z,2.63
2022-08-09T15:12:19.583Z,2.78
2022-08-09T15:14:23.427Z,2.60
2022-08-09T15:16:30.340Z,2.47
2022-08-09T15:18:33.918Z,2.45
2022-08-09T15:22:00.870Z,4.32
2022-08-09T15:23:03.302Z,2.92
2022-08-09T15:25:39.118Z,2.03
2022-08-09T15:27:48.093Z,2.75
2022-08-09T15:30:56.598Z,2.67
2022-08-09T15:32:28.918Z,2.90
2022-08-09T15:34:41.802Z,3.38
2022-08-09T15:36:48.227Z,3.60
2022-08-09T15:38:51.171Z,3.88
2022-08-09T15:40:53.769Z,4.53
2022-08-09T15:42:56.444Z,3.63
2022-08-09T15:45:00.238Z,3.67
2022-08-09T15:47:03.669Z,3.58
2022-08-09T15:49:23.558Z,5.13
2022-08-09T15:51:44.573Z,4.45
2022-08-09T15:54:05.123Z,5.30
2022-08-09T15:56:21.413Z,4.13
2022-08-09T15:58:31.515Z,3.97
2022-08-09T16:00:35.629Z,3.40
2022-08-09T16:02:38.459Z,4.60
2022-08-09T16:04:42.739Z,4.35
2022-08-09T16:06:50.579Z,3.50
2022-08-09T16:08:56.178Z,3.58
2022-08-09T16:11:02.840Z,3.03
2022-08-09T16:13:18.752Z,4.25
2022-08-09T16:16:04.834Z,4.30
2022-08-09T16:17:52.195Z,3.90
2022-08-09T16:20:03.842Z,4.85
2022-08-09T16:22:07.830Z,4.95
2022-08-09T16:24:30.007Z,4.35
2022-08-09T16:26:38.021Z,4.13
2022-08-09T16:28:40.666Z,4.82
2022-08-09T16:30:44.983Z,5.20
2022-08-09T16:33:10.695Z,4.30
2022-08-09T16:35:53.063Z,4.38
2022-08-09T16:37:53.566Z,4.88
2022-08-09T16:40:05.380Z,4.75
2022-08-09T16:42:14.760Z,5.50
2022-08-09T16:44:19.384Z,4.78
2022-08-09T16:46:24.218Z,4.30
2022-08-09T16:48:41.607Z,5.10
2022-08-09T16:50:59.068Z,4.25
2022-08-09T16:53:09.854Z,4.47
2022-08-09T16:55:15.828Z,5.43
2022-08-09T16:57:20.867Z,5.22
2022-08-09T16:59:23.463Z,4.90
2022-08-09T17:01:26.685Z,4.70
2022-08-09T17:03:30.185Z,4.53
2022-08-09T17:06:02.799Z,5.15
2022-08-09T17:08:44.101Z,4.82
2022-08-09T17:10:20.112Z,4.63
2022-08-09T17:12:23.668Z,5.18
2022-08-09T17:14:28.735Z,4.10
2022-08-09T17:16:31.996Z,4.15
2022-08-09T17:18:41.138Z,5.65
2022-08-09T17:20:52.512Z,6.78
2022-08-09T17:23:00.239Z,6.40
2022-08-09T17:25:10.152Z,5.85
2022-08-09T17:27:15.343Z,5.60
2022-08-09T17:29:20.076Z,5.25
2022-08-09T17:31:23.602Z,6.28
2022-08-09T17:33:26.301Z,6.53
2022-08-09T17:35:40.810Z,6.80
2022-08-09T17:38:12.745Z,6.20
2022-08-09T17:40:18.264Z,6.25
2022-08-09T17:42:40.800Z,6.22
2022-08-09T17:44:49.458Z,6.53
2022-08-09T17:46:55.814Z,6.30
2022-08-09T17:49:00.458Z,5.90
2022-08-09T17:51:09.773Z,6.88
2022-08-09T17:53:22.309Z,6.13
2022-08-09T17:55:25.378Z,6.28
2022-08-09T17:58:03.204Z,7.47
2022-08-09T18:00:07.800Z,6.35
2022-08-09T18:02:12.838Z,7.18
2022-08-09T18:04:22.249Z,7.18
2022-08-09T18:06:32.070Z,6.80
2022-08-09T18:08:35.754Z,7.75
2022-08-09T18:10:40.047Z,6.47
2022-08-09T18:13:40.676Z,6.95
2022-08-09T18:15:13.417Z,6.50
2022-08-09T18:17:18.850Z,6.80
2022-08-09T18:20:57.866Z,6.05
2022-08-09T18:21:53.030Z,8.05
2022-08-09T18:24:11.440Z,7.00
2022-08-09T18:26:16.713Z,7.45
2022-08-09T18:30:40.805Z,5.88
2022-08-09T18:30:49.646Z,7.72
2022-08-09T18:32:54.249Z,6.90
2022-08-09T18:34:57.503Z,6.93
2022-08-09T18:37:00.222Z,6.25
2022-08-09T18:39:04.471Z,6.57
2022-08-09T18:41:07.495Z,5.97
2022-08-09T18:43:15.834Z,6.90
2022-08-09T18:46:44.910Z,6.65
2022-08-09T18:47:41.214Z,6.35
2022-08-09T18:49:47.020Z,7.18
2022-08-09T18:51:55.017Z,6.70
2022-08-09T18:54:10.534Z,6.65
2022-08-09T18:56:27.072Z,8.23
2022-08-09T18:58:32.497Z,6.63
2022-08-09T19:00:35.827Z,7.03
2022-08-09T19:02:40.295Z,7.47
2022-08-09T19:04:48.018Z,7.40
2022-08-09T19:07:07.406Z,7.00
2022-08-09T19:09:13.742Z,6.85
2022-08-09T19:11:37.716Z,7.72
2022-08-09T19:13:51.352Z,9.27
2022-08-09T19:15:56.222Z,7.82
2022-08-09T19:17:59.434Z,8.82
2022-08-09T19:20:04.002Z,9.75
2022-08-09T19:22:07.472Z,9.57
2022-08-09T19:24:36.557Z,9.45
2022-08-09T19:26:34.893Z,10.10
2022-08-09T19:28:38.423Z,9.98
2022-08-09T19:30:45.462Z,10.60
2022-08-09T19:32:52.966Z,9.93
2022-08-09T19:34:57.489Z,9.70
2022-08-09T19:37:00.459Z,10.10
2022-08-09T19:39:05.630Z,8.73
2022-08-09T19:41:08.703Z,8.80
2022-08-09T19:43:16.293Z,7.50
2022-08-09T19:45:39.123Z,7.95
2022-08-09T19:47:45.130Z,7.70
2022-08-09T19:50:09.026Z,7.55
2022-08-09T19:52:12.168Z,7.38
2022-08-09T19:54:15.170Z,8.77
2022-08-09T19:56:17.982Z,8.10
2022-08-09T19:58:31.509Z,8.48
2022-08-09T20:00:35.458Z,8.18
2022-08-09T20:04:17.840Z,8.75
2022-08-09T20:05:10.000Z,8.23
2022-08-09T20:07:21.309Z,9.00
2022-08-09T20:09:44.300Z,7.78
2022-08-09T20:11:53.107Z,9.07
2022-08-09T20:13:56.662Z,9.10
2022-08-09T20:16:34.154Z,7.68
2022-08-09T20:18:27.820Z,7.28
2022-08-09T20:20:31.254Z,8.10
2022-08-09T20:22:37.872Z,8.00
2022-08-09T20:24:41.036Z,7.25
2022-08-09T20:26:43.770Z,8.05
2022-08-09T20:28:49.780Z,8.43
2022-08-09T20:30:52.684Z,7.75
2022-08-09T20:32:57.740Z,8.30
2022-08-09T20:35:01.436Z,7.38
2022-08-09T20:37:06.428Z,8.05
2022-08-09T20:39:28.725Z,7.78
2022-08-09T20:41:37.548Z,7.95
2022-08-09T20:43:44.843Z,7.95
2022-08-09T20:45:59.591Z,7.47
2022-08-09T20:48:05.234Z,7.55
2022-08-09T20:50:14.815Z,8.60
2022-08-09T20:52:36.794Z,7.43
2022-08-09T20:54:40.480Z,7.63
2022-08-09T20:56:55.532Z,6.90
2022-08-09T20:58:59.311Z,6.88
2022-08-09T21:01:32.777Z,8.02
2022-08-09T21:03:31.131Z,7.65
2022-08-09T21:05:59.985Z,7.85
2022-08-09T21:08:02.817Z,7.03
2022-08-09T21:10:07.028Z,7.70
2022-08-09T21:14:19.249Z,7.03
2022-08-09T21:16:21.931Z,6.95
2022-08-09T21:18:33.431Z,7.80
2022-08-09T21:20:56.699Z,7.55
2022-08-09T21:23:00.709Z,8.20
2022-08-09T21:25:22.333Z,7.10
2022-08-09T21:27:52.713Z,7.18
2022-08-09T21:29:55.749Z,7.22
2022-08-09T21:31:58.644Z,7.45
2022-08-09T21:34:02.985Z,7.47
2022-08-09T21:36:10.163Z,7.20
2022-08-09T21:38:15.219Z,6.72
2022-08-09T21:40:30.282Z,7.72
2022-08-09T21:42:33.633Z,7.63
2022-08-09T21:44:37.169Z,7.25
2022-08-09T21:46:40.492Z,7.30
2022-08-09T21:48:49.083Z,8.40
2022-08-09T21:50:52.266Z,8.00
2022-08-09T21:52:56.041Z,7.57
2022-08-09T21:55:03.731Z,8.93
2022-08-09T21:57:37.315Z,8.85
2022-08-09T21:59:42.792Z,8.05
2022-08-09T22:01:58.765Z,7.47
2022-08-09T22:04:02.843Z,8.52
2022-08-09T22:06:05.807Z,7.20
2022-08-09T22:08:13.235Z,7.00
2022-08-09T22:10:22.972Z,7.47
2022-08-09T22:12:34.868Z,6.95
2022-08-09T22:14:37.532Z,7.60
2022-08-09T22:16:40.410Z,7.80
2022-08-09T22:18:53.262Z,7.40
2022-08-09T22:20:57.323Z,7.05
2022-08-09T22:23:00.495Z,8.02
2022-08-09T22:26:04.533Z,7.22
2022-08-09T22:27:26.503Z,7.25
2022-08-09T22:29:46.311Z,8.73
2022-08-09T22:31:56.530Z,8.32
2022-08-09T22:33:59.872Z,8.50
2022-08-09T22:36:03.762Z,8.75
2022-08-09T22:38:08.004Z,8.75
2022-08-09T22:40:18.248Z,8.40
2022-08-09T22:42:23.635Z,8.23
2022-08-09T22:44:32.699Z,8.70
2022-08-09T22:48:12.673Z,8.15
2022-08-09T22:49:01.849Z,7.88
2022-08-09T22:51:17.877Z,7.60
2022-08-09T22:53:44.239Z,8.93
2022-08-09T22:56:33.029Z,8.07
2022-08-09T22:58:30.557Z,8.25
2022-08-09T23:00:34.847Z,8.73
2022-08-09T23:02:40.615Z,8.98
2022-08-09T23:04:53.619Z,8.52
2022-08-09T23:07:16.323Z,9.27
2022-08-09T23:09:19.137Z,8.88
2022-08-09T23:11:22.615Z,9.88
2022-08-09T23:13:25.339Z,9.85
2022-08-09T23:15:29.228Z,9.40
2022-08-09T23:17:32.227Z,9.57
2022-08-09T23:20:00.857Z,10.50
2022-08-09T23:21:57.792Z,8.63
2022-08-09T23:24:05.138Z,9.13
2022-08-09T23:26:09.522Z,8.65
2022-08-09T23:28:15.548Z,8.60
2022-08-09T23:30:18.724Z,9.20
2022-08-09T23:32:21.394Z,8.40
2022-08-09T23:34:24.108Z,9.15
2022-08-09T23:36:26.720Z,8.25
2022-08-09T23:38:29.397Z,9.13
2022-08-09T23:40:32.111Z,8.77
2022-08-09T23:42:34.892Z,9.32
2022-08-09T23:44:37.669Z,9.52
2022-08-09T23:46:40.648Z,8.88
2022-08-09T23:48:43.319Z,8.73
2022-08-09T23:50:46.714Z,8.02
2022-08-09T23:52:49.399Z,8.65
2022-08-09T23:54:52.856Z,8.00
2022-08-09T23:56:56.150Z,7.80
2022-08-09T23:59:00.903Z,9.27
